Terminal Aerodrome Forecast
Issued by NWS

Home | Current Version | Previous Version | Text Only | Print | Product List | Glossary Off
Versions: 1 2 3 4 5 6 7 8 9 10 11 12

000
FTUS43 KTOP 210520
TAFFOE
TAF
KFOE 210520Z 2106/2206 08007KT P6SM BKN200
     FM211100 10006KT P6SM VCSH OVC100
     FM211200 10006KT 6SM -RA OVC060
     FM211700 07007KT 6SM -RA OVC030=

USA.gov is the U.S. government's official web portal to all federal, state and local government web resources and services.